Fort Dodge, IA

6:43 PM CDT on August 29, 2016 (GMT -0500)
Duncombe School area | | Change Station
Active Advisory: Special Statement

Elev 1109 ft 42.51 °N, 94.18 °W | Updated 1 second ago

Partly Cloudy
Partly Cloudy
79.7 °F
Feels Like 83 °F
N
0.0
Wind Variable Wind from SE
Gusts 0.0 mph

Today
High -- | Low -- °F
--% Chance of Precip.
Yesterday
High -- | Low -- °F
Precip. -- in
Pressure 30.19 in
Visibility 10.0 miles
Clouds Few 3400 ft
Heat Index 83 °F
Dew Point 71 °F
Humidity 76%
Rainfall 0.00 in
Snow Depth Not available.
6:39 AM 7:55 PM
Waning Crescent, 6% visible
METAR KFOD 292335Z AUTO 14007KT 10SM FEW034 25/19 A3019 RMK AO1
Pressure 30.19 in
Visibility 10.0 miles
Clouds Few 3400 ft
Heat Index 83 °F
Dew Point 71 °F
Humidity 76%
Rainfall 0.00 in
Snow Depth Not available.
6:39 AM 7:55 PM
Waning Crescent, 6% visible
METAR KFOD 292335Z AUTO 14007KT 10SM FEW034 25/19 A3019 RMK AO1

10-Day Weather Forecast

Almanac

Astronomy

Aug. 29, 2016 Rise Set
Actual Time
Civil Twilight
Nautical Twilight
Astronomical Twilight
Moon
Length of Visible Light
Length of Day
Tomorrow will be .
, % of the Moon is Illuminated

Today's Extremes

State Highs State Lows

Community

WunderPhotos

Upload Photos

1,935,695 photos uploaded!

WunderBlog® & News

Nearby

Air Quality

  Air Quality AQ Index Pollutant
Not available.

Snow Depth

Station Depth Elevation

Earthquake Activity

City Distance Mag. Time & Date
Minimum magnitude displayed is 2.5.

Coastal Water Temperatures

Place Temperature

Stations

Nearby Weather Stations

Station Location Temp. Windchill Dew Point Humidity Wind Precip. Elev Updated Type
                   

Watches & Warnings

Special Statement
Issued: 1:37 PM CDT Aug. 29, 2016 – National Weather Service

... Conditions are favorable for funnel clouds...

Current atmospheric conditions support the development of funnel
clouds across much of Iowa this afternoon. Usually... these funnel
clouds can form from showers and weak thunderstorms. These funnels
are normally brief... drop only a few hundred feet from the cloud
base... and rarely become a tornado or cause damage. However... if
one is spotted... please immediately report it to the National
Weather Service. If a Tornado Warning would become
necessary... take appropriate action.


Small